Time;durP1;ratioP1;P1;durP2;ratioP2;P2;SDS_P1;SDS_P2;PMS_P1;PMS_P2;Temp;Humidity;BMP_temperature;BMP_pressure;BME280_temperature;BME280_humidity;BME280_pressure;Samples;Min_cycle;Max_cycle;Signal;HPM_P1;HPM_P2
2021/07/02 00:01:43;;;;;;;39.55;17.77;;;15.70;99.90;;;;;;5093840;28;20050;-84
2021/07/02 00:04:32;;;;;;;36.63;15.82;;;15.70;99.90;;;;;;5100670;28;20119;-86
2021/07/02 00:07:19;;;;;;;45.22;17.48;;;15.80;99.90;;;;;;5078267;28;20126;-83
2021/07/02 00:10:09;;;;;;;40.63;16.63;;;15.80;99.90;;;;;;5099343;28;20068;-85
2021/07/02 00:12:57;;;;;;;35.67;16.27;;;15.80;99.90;;;;;;5093589;28;20048;-84
2021/07/02 00:15:44;;;;;;;40.22;17.02;;;15.90;99.90;;;;;;5088204;28;20044;-82
2021/07/02 00:18:31;;;;;;;39.55;16.92;;;15.80;99.90;;;;;;5090825;28;20052;-81
2021/07/02 00:21:18;;;;;;;36.90;16.67;;;15.80;99.90;;;;;;5088214;28;20067;-82
2021/07/02 00:24:06;;;;;;;37.00;16.48;;;15.70;99.90;;;;;;5094616;28;20031;-83
2021/07/02 00:26:55;;;;;;;37.33;16.05;;;15.70;99.90;;;;;;5093545;28;20051;-85
2021/07/02 00:29:42;;;;;;;36.63;16.07;;;15.80;99.90;;;;;;5085637;28;20130;-85
2021/07/02 00:32:29;;;;;;;45.60;16.95;;;15.80;99.90;;;;;;5092223;28;20063;-84
2021/07/02 00:35:16;;;;;;;40.05;15.98;;;15.80;99.90;;;;;;5084439;28;20098;-85
2021/07/02 00:38:03;;;;;;;36.78;16.23;;;15.80;99.90;;;;;;5092960;28;20142;-83
2021/07/02 00:40:50;;;;;;;36.55;16.92;;;15.70;99.90;;;;;;5090817;28;20047;-85
2021/07/02 00:43:48;;;;;;;44.03;16.65;;;15.80;99.90;;;;;;5088107;28;20095;-82
2021/07/02 00:46:35;;;;;;;43.17;17.08;;;15.80;99.90;;;;;;5089011;28;20040;-86
2021/07/02 00:49:22;;;;;;;38.05;16.08;;;15.70;99.90;;;;;;5084590;28;20119;-84
2021/07/02 00:52:12;;;;;;;42.13;16.83;;;15.70;99.90;;;;;;5098058;28;20051;-86
2021/07/02 00:54:59;;;;;;;43.42;16.83;;;15.70;99.90;;;;;;5093481;28;20036;-83
2021/07/02 00:57:47;;;;;;;37.45;16.35;;;15.70;99.90;;;;;;5098406;28;20104;-81
2021/07/02 01:00:35;;;;;;;36.60;16.13;;;15.70;99.90;;;;;;5089179;28;20122;-82
2021/07/02 01:03:22;;;;;;;41.28;17.00;;;15.70;99.90;;;;;;5092566;28;20139;-85
2021/07/02 01:06:10;;;;;;;36.72;15.73;;;15.60;99.90;;;;;;5092174;28;20066;-83
2021/07/02 01:08:57;;;;;;;31.10;14.55;;;15.70;99.90;;;;;;5089736;28;20048;-81
2021/07/02 01:11:44;;;;;;;31.13;15.13;;;15.70;99.90;;;;;;5093736;28;20046;-83
2021/07/02 01:14:31;;;;;;;34.55;15.93;;;15.80;99.90;;;;;;5088109;28;20112;-84
2021/07/02 01:17:20;;;;;;;44.28;15.57;;;15.70;99.90;;;;;;5095839;28;20051;-83
2021/07/02 01:20:09;;;;;;;27.87;14.63;;;15.70;99.90;;;;;;5099353;28;20059;-83
2021/07/02 01:22:57;;;;;;;36.33;15.23;;;15.80;99.90;;;;;;5099350;28;20040;-84
2021/07/02 01:25:46;;;;;;;35.13;16.88;;;15.80;99.90;;;;;;5101648;28;20095;-82
2021/07/02 01:28:33;;;;;;;34.83;16.00;;;15.70;99.90;;;;;;5095414;28;20105;-82
2021/07/02 01:31:20;;;;;;;39.20;16.10;;;15.70;99.90;;;;;;5098147;28;20074;-86
2021/07/02 01:34:07;;;;;;;34.05;15.65;;;15.80;99.90;;;;;;5095238;28;20037;-84
2021/07/02 01:36:54;;;;;;;40.95;16.50;;;15.80;99.90;;;;;;5101635;28;20354;-85
2021/07/02 01:39:43;;;;;;;34.92;16.35;;;15.80;99.90;;;;;;5091044;28;20064;-82
2021/07/02 01:42:30;;;;;;;28.45;15.40;;;15.80;99.90;;;;;;5094422;28;20071;-85
2021/07/02 01:45:17;;;;;;;39.42;16.25;;;15.80;99.90;;;;;;5093345;28;20069;-83
2021/07/02 01:48:05;;;;;;;35.20;15.88;;;15.80;99.90;;;;;;5102352;28;20091;-85
2021/07/02 01:50:52;;;;;;;34.95;15.90;;;15.80;99.90;;;;;;5095527;28;20062;-84
2021/07/02 01:53:39;;;;;;;31.25;15.15;;;15.70;99.90;;;;;;5094965;28;20044;-80
2021/07/02 01:56:27;;;;;;;33.22;16.10;;;15.80;99.90;;;;;;5107003;28;20059;-82
2021/07/02 01:59:15;;;;;;;35.15;15.43;;;15.80;99.90;;;;;;5091516;28;20047;-86
2021/07/02 02:02:02;;;;;;;37.17;15.80;;;15.80;99.90;;;;;;5093645;28;20112;-82
2021/07/02 02:04:50;;;;;;;41.33;17.33;;;15.80;99.90;;;;;;5100038;28;20043;-84
2021/07/02 02:07:37;;;;;;;30.35;14.70;;;15.80;99.90;;;;;;5093311;28;20030;-81
2021/07/02 02:10:24;;;;;;;36.60;15.68;;;15.80;99.90;;;;;;5087493;28;20103;-83
2021/07/02 02:13:13;;;;;;;39.58;15.88;;;15.80;99.90;;;;;;5099805;28;20036;-85
2021/07/02 02:16:00;;;;;;;42.08;18.20;;;15.80;99.90;;;;;;5089094;28;20046;-83
2021/07/02 02:18:47;;;;;;;44.75;17.42;;;15.70;99.90;;;;;;5098052;28;20028;-83
2021/07/02 02:21:35;;;;;;;34.90;16.90;;;15.60;99.90;;;;;;5094438;28;20123;-82
2021/07/02 02:24:22;;;;;;;34.40;17.85;;;15.50;99.90;;;;;;5102076;28;20063;-83
2021/07/02 02:27:09;;;;;;;36.95;17.20;;;15.40;99.90;;;;;;5099346;28;20066;-83
2021/07/02 02:29:58;;;;;;;36.75;17.40;;;15.40;99.90;;;;;;5095536;28;20108;-80
2021/07/02 02:32:45;;;;;;;35.28;16.02;;;15.40;99.90;;;;;;5102340;28;20068;-85
2021/07/02 02:35:33;;;;;;;34.63;16.40;;;15.50;99.90;;;;;;5100737;28;20108;-82
2021/07/02 02:38:20;;;;;;;37.28;16.80;;;15.40;99.90;;;;;;5110309;28;20032;-81
2021/07/02 02:41:07;;;;;;;31.48;14.95;;;15.30;99.90;;;;;;5099863;28;20039;-82
2021/07/02 02:43:54;;;;;;;34.67;16.50;;;16.20;99.90;;;;;;5090914;28;20044;-85
2021/07/02 02:46:43;;;;;;;30.08;15.95;;;15.20;99.90;;;;;;5089987;28;20048;-84
2021/07/02 02:49:30;;;;;;;38.22;15.80;;;15.20;99.90;;;;;;5094093;28;20103;-86
2021/07/02 02:52:17;;;;;;;33.65;15.35;;;15.30;99.90;;;;;;5095822;28;20020;-82
2021/07/02 02:55:05;;;;;;;31.77;16.23;;;15.30;99.90;;;;;;5094983;28;20103;-82
2021/07/02 02:57:52;;;;;;;28.92;15.32;;;15.20;99.90;;;;;;5111209;28;20058;-83
2021/07/02 03:00:39;;;;;;;33.60;15.27;;;15.20;99.90;;;;;;5103707;28;20036;-80
2021/07/02 03:03:28;;;;;;;32.38;15.32;;;15.20;99.90;;;;;;5093718;28;20048;-80
2021/07/02 03:06:25;;;;;;;25.92;14.45;;;15.30;99.90;;;;;;5103443;28;20040;-82
2021/07/02 03:09:12;;;;;;;32.15;15.20;;;15.20;99.90;;;;;;5094213;28;20051;-84
2021/07/02 03:11:59;;;;;;;34.78;14.90;;;15.20;99.90;;;;;;5095289;28;20044;-82
2021/07/02 03:14:47;;;;;;;27.05;14.40;;;15.10;99.90;;;;;;5092794;28;20043;-84
2021/07/02 03:17:34;;;;;;;29.08;14.63;;;15.10;99.90;;;;;;5097709;28;20056;-81
2021/07/02 03:20:25;;;;;;;26.50;14.48;;;15.20;99.90;;;;;;5084083;28;20107;-81
2021/07/02 03:23:12;;;;;;;25.45;13.93;;;15.20;99.90;;;;;;5096404;28;20096;-84
2021/07/02 03:25:59;;;;;;;29.13;15.05;;;15.20;99.90;;;;;;5101614;28;20032;-81
2021/07/02 03:28:46;;;;;;;31.05;14.98;;;15.20;99.90;;;;;;5104934;28;20079;-85
2021/07/02 03:31:34;;;;;;;31.02;15.13;;;15.20;99.90;;;;;;5098608;28;20095;-81
2021/07/02 03:34:21;;;;;;;32.40;14.93;;;15.30;99.90;;;;;;5093845;28;20044;-84
2021/07/02 03:37:10;;;;;;;33.28;15.52;;;15.40;99.90;;;;;;5089478;28;20044;-83
2021/07/02 03:39:57;;;;;;;33.45;16.13;;;15.30;99.90;;;;;;5105259;28;20115;-81
2021/07/02 03:42:44;;;;;;;33.30;15.05;;;15.20;99.90;;;;;;5094375;28;20058;-81
2021/07/02 03:45:31;;;;;;;27.58;14.98;;;15.20;99.90;;;;;;5097435;28;20111;-82
2021/07/02 03:48:18;;;;;;;28.02;14.48;;;15.20;99.90;;;;;;5102585;28;20051;-84
2021/07/02 03:51:05;;;;;;;27.48;14.00;;;16.20;99.90;;;;;;5090841;28;20048;-83
2021/07/02 03:53:54;;;;;;;30.80;15.25;;;15.20;99.90;;;;;;5093065;28;20036;-81
2021/07/02 03:57:11;;;;;;;29.10;15.00;;;15.20;99.90;;;;;;5108546;28;20063;-82
2021/07/02 03:59:51;;;;;;;29.05;13.80;;;15.20;99.90;;;;;;5108598;28;20516;-84
2021/07/02 04:02:38;;;;;;;28.02;13.75;;;15.20;99.90;;;;;;5092176;28;20089;-80
2021/07/02 04:05:26;;;;;;;25.52;13.60;;;15.10;99.90;;;;;;5093477;28;20036;-81
2021/07/02 04:08:13;;;;;;;25.00;12.55;;;15.10;99.90;;;;;;5103020;28;20070;-85
2021/07/02 04:11:03;;;;;;;28.10;13.20;;;15.00;99.90;;;;;;5092153;28;20477;-83
2021/07/02 04:13:50;;;;;;;24.42;11.90;;;15.20;99.90;;;;;;5092138;28;20100;-84
2021/07/02 04:16:37;;;;;;;28.88;13.25;;;15.30;99.90;;;;;;5096764;28;20044;-84
2021/07/02 04:19:25;;;;;;;24.13;11.23;;;15.40;99.90;;;;;;5088006;28;20043;-83
2021/07/02 04:22:12;;;;;;;36.45;14.10;;;15.40;99.90;;;;;;5083694;28;20336;-83
2021/07/02 04:24:59;;;;;;;25.02;12.38;;;15.50;99.90;;;;;;5085210;28;20119;-84
2021/07/02 04:27:48;;;;;;;28.83;13.07;;;15.50;99.90;;;;;;5095743;28;20043;-85
2021/07/02 04:30:36;;;;;;;34.55;14.13;;;15.50;99.90;;;;;;5091714;28;20048;-81
2021/07/02 04:33:23;;;;;;;29.23;13.18;;;16.00;99.90;;;;;;5079773;28;20048;-82
2021/07/02 04:36:10;;;;;;;28.83;13.52;;;15.50;99.90;;;;;;5081831;28;20112;-84
2021/07/02 04:38:57;;;;;;;28.85;12.55;;;15.50;99.90;;;;;;5089669;28;20083;-86
2021/07/02 04:41:44;;;;;;;34.38;13.30;;;15.50;99.90;;;;;;5076655;28;20102;-82
2021/07/02 04:44:34;;;;;;;34.83;13.18;;;15.50;99.90;;;;;;5076765;28;20104;-83
2021/07/02 04:47:22;;;;;;;35.47;14.07;;;15.50;99.90;;;;;;5087085;28;20097;-80
2021/07/02 04:50:10;;;;;;;34.58;14.10;;;15.40;99.90;;;;;;5075095;28;20056;-82
2021/07/02 04:52:57;;;;;;;31.80;14.18;;;15.40;99.90;;;;;;5091494;28;20081;-84
2021/07/02 04:55:44;;;;;;;29.02;13.90;;;15.60;99.90;;;;;;5096042;28;20127;-82
2021/07/02 04:58:31;;;;;;;25.10;13.73;;;15.70;99.90;;;;;;5088492;28;20047;-86
2021/07/02 05:01:21;;;;;;;29.48;13.65;;;15.70;99.90;;;;;;5081267;28;20036;-81
2021/07/02 05:04:08;;;;;;;27.98;12.65;;;15.90;99.90;;;;;;5098559;28;20505;-83
2021/07/02 05:06:56;;;;;;;27.55;13.07;;;15.90;99.90;;;;;;5093867;28;20044;-86
2021/07/02 05:09:43;;;;;;;27.73;12.98;;;16.10;99.90;;;;;;5089958;28;20078;-85
2021/07/02 05:12:30;;;;;;;26.60;13.13;;;16.20;99.90;;;;;;5095172;28;20044;-86
2021/07/02 05:15:17;;;;;;;24.08;12.90;;;16.20;99.90;;;;;;5088269;28;20039;-83
2021/07/02 05:18:06;;;;;;;35.38;14.18;;;16.10;99.90;;;;;;5088724;28;20044;-84
2021/07/02 05:20:53;;;;;;;28.90;12.60;;;16.40;99.90;;;;;;5090030;28;20052;-86
2021/07/02 05:23:40;;;;;;;31.05;13.50;;;16.10;99.90;;;;;;5090504;28;20052;-83
2021/07/02 05:26:27;;;;;;;26.63;12.45;;;16.20;99.90;;;;;;5091369;28;20074;-83
2021/07/02 05:29:14;;;;;;;27.73;13.75;;;16.10;99.90;;;;;;5089113;28;20046;-84
2021/07/02 05:32:02;;;;;;;26.90;13.13;;;16.10;99.90;;;;;;5091722;28;20078;-83
2021/07/02 05:34:50;;;;;;;27.27;12.82;;;16.00;99.90;;;;;;5094204;28;20706;-85
2021/07/02 05:37:42;;;;;;;29.85;13.10;;;16.00;99.90;;;;;;5096496;28;20111;-83
2021/07/02 05:40:29;;;;;;;25.83;13.35;;;15.90;99.90;;;;;;5093918;28;20044;-84
2021/07/02 05:43:17;;;;;;;34.33;13.13;;;15.90;99.90;;;;;;5091369;28;20071;-86
2021/07/02 05:46:05;;;;;;;29.38;13.60;;;15.90;99.90;;;;;;5091013;28;20044;-85
2021/07/02 05:48:52;;;;;;;28.35;13.35;;;16.00;99.90;;;;;;5103980;28;20423;-85
2021/07/02 05:51:41;;;;;;;24.90;13.50;;;16.00;99.90;;;;;;5094334;28;20068;-86
2021/07/02 05:54:29;;;;;;;30.15;12.75;;;16.00;99.90;;;;;;5094021;28;20052;-83
2021/07/02 05:57:16;;;;;;;30.63;13.55;;;17.40;99.90;;;;;;5094139;28;20095;-84
2021/07/02 06:00:05;;;;;;;27.88;14.07;;;16.30;99.90;;;;;;5081988;28;20056;-81
2021/07/02 06:02:52;;;;;;;30.50;13.88;;;16.30;99.90;;;;;;5089605;28;20090;-84
2021/07/02 06:05:39;;;;;;;33.75;14.05;;;16.40;99.90;;;;;;5086405;28;20066;-83
2021/07/02 06:08:28;;;;;;;28.80;13.80;;;16.30;99.90;;;;;;5096666;28;20040;-84
2021/07/02 06:11:15;;;;;;;24.90;13.10;;;16.90;99.90;;;;;;5081070;28;20075;-85
2021/07/02 06:14:02;;;;;;;29.25;13.23;;;16.30;99.90;;;;;;5095552;28;20095;-86
2021/07/02 06:16:49;;;;;;;30.52;13.60;;;16.20;99.90;;;;;;5092172;28;20107;-83
2021/07/02 06:19:37;;;;;;;31.10;13.65;;;16.30;99.90;;;;;;5094880;28;20048;-85
2021/07/02 06:22:24;;;;;;;30.33;13.77;;;16.30;99.90;;;;;;5084601;28;20059;-85
2021/07/02 06:25:13;;;;;;;29.83;13.13;;;16.40;99.90;;;;;;5080033;28;20032;-86
2021/07/02 06:28:00;;;;;;;28.60;12.50;;;16.50;99.90;;;;;;5086499;28;20040;-84
2021/07/02 06:30:47;;;;;;;34.40;14.80;;;16.50;99.90;;;;;;5079394;28;20106;-86
2021/07/02 06:33:34;;;;;;;34.30;13.45;;;16.50;99.90;;;;;;5092541;28;20107;-85
2021/07/02 06:36:22;;;;;;;26.00;13.20;;;16.50;99.90;;;;;;5086338;28;20044;-85
2021/07/02 06:39:09;;;;;;;24.27;12.25;;;16.70;99.90;;;;;;5100161;28;20114;-83
2021/07/02 06:41:57;;;;;;;27.08;12.52;;;16.90;99.90;;;;;;5069300;28;20044;-85
2021/07/02 06:44:44;;;;;;;26.83;13.23;;;16.90;99.90;;;;;;5082370;28;20036;-83
2021/07/02 06:47:31;;;;;;;27.52;12.93;;;16.90;99.90;;;;;;5085532;28;20076;-83
2021/07/02 06:50:19;;;;;;;26.60;13.05;;;16.90;99.90;;;;;;5086112;28;20127;-85
2021/07/02 06:53:06;;;;;;;24.25;11.95;;;17.00;99.90;;;;;;5072912;28;20124;-84
2021/07/02 06:55:54;;;;;;;23.73;12.65;;;16.80;99.90;;;;;;5088499;28;20100;-84
2021/07/02 06:58:43;;;;;;;22.17;12.48;;;16.80;99.90;;;;;;5098954;28;20108;-86
2021/07/02 07:01:30;;;;;;;24.63;12.43;;;16.70;99.90;;;;;;5097169;28;20058;-83
2021/07/02 07:04:17;;;;;;;25.35;12.70;;;16.70;99.90;;;;;;5075393;28;20327;-85
2021/07/02 07:07:06;;;;;;;23.38;11.43;;;16.70;99.90;;;;;;5075506;28;20058;-82
2021/07/02 07:09:53;;;;;;;28.52;12.52;;;16.70;99.90;;;;;;5101584;28;20070;-85
2021/07/02 07:12:40;;;;;;;26.85;12.85;;;16.80;99.90;;;;;;5080651;28;20104;-85
2021/07/02 07:15:31;;;;;;;28.05;12.85;;;16.70;99.90;;;;;;5082881;28;20048;-85
2021/07/02 07:18:18;;;;;;;31.27;13.70;;;16.60;99.90;;;;;;5096912;28;20036;-86
2021/07/02 07:21:06;;;;;;;26.80;12.43;;;16.60;99.90;;;;;;5085138;28;20048;-85
2021/07/02 07:23:53;;;;;;;30.60;14.15;;;16.60;99.90;;;;;;5083652;28;20139;-84
2021/07/02 07:26:40;;;;;;;28.63;14.15;;;16.50;99.90;;;;;;5093018;28;20051;-85
2021/07/02 07:29:27;;;;;;;33.67;14.13;;;16.30;99.90;;;;;;5096234;28;20040;-84
2021/07/02 07:32:16;;;;;;;26.40;13.05;;;16.40;99.90;;;;;;5083121;28;20042;-83
2021/07/02 07:35:13;;;;;;;28.40;14.02;;;16.40;99.90;;;;;;5088265;28;20036;-84
2021/07/02 07:38:00;;;;;;;27.08;14.02;;;16.40;99.90;;;;;;5084139;28;20044;-83
2021/07/02 07:40:47;;;;;;;31.23;13.70;;;16.40;99.90;;;;;;5080439;28;20072;-86
2021/07/02 07:43:35;;;;;;;34.40;13.77;;;16.50;99.90;;;;;;5087595;28;20130;-85
2021/07/02 07:46:24;;;;;;;27.77;13.23;;;16.50;99.90;;;;;;5085395;28;20104;-84
2021/07/02 07:49:12;;;;;;;24.83;13.48;;;16.60;99.90;;;;;;5072172;28;20123;-84
2021/07/02 07:52:11;;;;;;;26.63;12.70;;;16.90;99.90;;;;;;5083251;28;20366;-83
2021/07/02 07:54:58;;;;;;;29.30;12.73;;;16.70;99.90;;;;;;5084160;28;20115;-86
2021/07/02 07:57:46;;;;;;;24.55;13.65;;;16.90;99.90;;;;;;5086956;28;20100;-84
2021/07/02 08:00:33;;;;;;;32.05;13.80;;;17.00;99.90;;;;;;5077363;28;20145;-85
2021/07/02 08:03:20;;;;;;;28.17;14.18;;;17.10;99.90;;;;;;5090227;28;20417;-85
2021/07/02 08:06:08;;;;;;;25.98;11.95;;;17.00;99.90;;;;;;5074979;28;20432;-86
2021/07/02 08:08:57;;;;;;;27.50;13.85;;;17.90;99.90;;;;;;5077305;28;20534;-86
2021/07/02 08:11:44;;;;;;;22.45;13.48;;;17.10;99.90;;;;;;5081445;28;20043;-86
2021/07/02 08:14:32;;;;;;;26.15;14.18;;;16.90;99.90;;;;;;5096791;28;20040;-85
2021/07/02 08:17:19;;;;;;;26.42;14.45;;;17.00;99.90;;;;;;5078709;28;20201;-86
2021/07/02 08:20:08;;;;;;;34.40;15.65;;;17.00;99.90;;;;;;5092437;28;20044;-85
2021/07/02 08:22:57;;;;;;;28.13;15.35;;;17.00;99.90;;;;;;5078957;28;20112;-87
2021/07/02 08:25:44;;;;;;;31.00;16.35;;;16.90;99.90;;;;;;5081879;28;20115;-86
2021/07/02 08:31:37;;;;;;;32.58;16.23;;;17.10;99.90;;;;;;5086701;28;20148;-83
2021/07/02 08:34:25;;;;;;;34.78;17.23;;;17.40;99.90;;;;;;5079219;28;20497;-85
2021/07/02 08:37:12;;;;;;;31.95;16.35;;;17.40;99.90;;;;;;5083534;28;20107;-85
2021/07/02 08:40:02;;;;;;;26.95;14.48;;;17.60;99.90;;;;;;5075867;28;20037;-83
2021/07/02 08:42:49;;;;;;;27.17;14.23;;;17.90;99.90;;;;;;5079270;28;20066;-86
2021/07/02 08:45:37;;;;;;;29.88;15.23;;;18.30;99.90;;;;;;5083090;28;20051;-87
2021/07/02 08:48:26;;;;;;;30.55;14.73;;;18.50;99.90;;;;;;5071946;28;20115;-86
2021/07/02 08:51:14;;;;;;;29.92;14.75;;;18.60;99.90;;;;;;5083252;28;20044;-86
2021/07/02 08:54:01;;;;;;;26.70;14.57;;;18.60;99.90;;;;;;5074838;28;21531;-85
2021/07/02 08:56:58;;;;;;;24.83;14.63;;;18.70;99.90;;;;;;5069997;28;20051;-85
2021/07/02 08:59:45;;;;;;;26.95;14.02;;;18.90;99.90;;;;;;5076801;28;20049;-85
2021/07/02 09:02:36;;;;;;;22.60;13.45;;;18.80;99.90;;;;;;5065000;28;20044;-84
2021/07/02 09:05:27;;;;;;;23.90;13.07;;;18.80;99.90;;;;;;5069340;28;20051;-84
2021/07/02 09:08:16;;;;;;;26.13;13.18;;;18.90;99.90;;;;;;5086770;28;20040;-86
2021/07/02 09:11:23;;;;;;;22.92;13.10;;;19.10;99.90;;;;;;5092999;28;20485;-84
2021/07/02 09:14:23;;;;;;;24.00;12.32;;;19.00;99.90;;;;;;5088539;28;20045;-85
2021/07/02 09:17:11;;;;;;;26.48;14.00;;;19.30;99.90;;;;;;5075501;28;20062;-84
2021/07/02 09:20:14;;;;;;;25.00;14.13;;;19.50;99.90;;;;;;5071019;28;20040;-83
2021/07/02 09:23:02;;;;;;;23.20;14.88;;;19.70;99.90;;;;;;5077499;28;20078;-84
2021/07/02 09:25:52;;;;;;;24.30;14.77;;;20.00;99.90;;;;;;5085230;28;20047;-86
2021/07/02 09:28:42;;;;;;;26.85;14.55;;;20.00;99.90;;;;;;5076008;28;20040;-84
2021/07/02 09:31:35;;;;;;;24.42;13.82;;;19.90;99.90;;;;;;5081969;28;20051;-83
2021/07/02 09:34:22;;;;;;;28.10;14.65;;;19.80;99.90;;;;;;5078042;28;20048;-83
2021/07/02 09:37:20;;;;;;;24.23;13.30;;;19.50;99.90;;;;;;5074577;28;20121;-83
2021/07/02 09:40:14;;;;;;;25.58;13.07;;;19.50;99.90;;;;;;5082578;28;20487;-84
2021/07/02 09:43:07;;;;;;;22.88;12.82;;;19.40;99.90;;;;;;5074834;28;20044;-81
2021/07/02 09:45:55;;;;;;;25.85;12.55;;;18.90;99.90;;;;;;5088972;28;20239;-82
2021/07/02 09:48:45;;;;;;;24.67;11.95;;;18.70;99.90;;;;;;5084156;28;20054;-84
2021/07/02 09:51:32;;;;;;;20.23;12.60;;;18.60;99.90;;;;;;5076925;28;20060;-81
2021/07/02 09:54:19;;;;;;;25.63;13.05;;;18.40;99.90;;;;;;5081525;28;20054;-83
2021/07/02 09:57:21;;;;;;;21.20;12.85;;;18.50;99.90;;;;;;5078687;28;20048;-82
2021/07/02 10:00:10;;;;;;;23.00;12.85;;;18.50;99.90;;;;;;5085858;28;20123;-81
2021/07/02 10:02:59;;;;;;;21.23;12.88;;;18.60;99.90;;;;;;5075589;28;20518;-85
2021/07/02 10:05:53;;;;;;;31.90;15.70;;;18.90;99.90;;;;;;5076327;28;20055;-84
2021/07/02 10:08:42;;;;;;;24.52;14.02;;;19.00;99.90;;;;;;5073882;28;20081;-84
2021/07/02 10:11:29;;;;;;;25.08;13.40;;;19.10;99.90;;;;;;5076411;28;20142;-85
2021/07/02 10:14:17;;;;;;;23.98;13.90;;;19.40;99.90;;;;;;5067858;28;20476;-84
2021/07/02 10:17:04;;;;;;;24.00;13.27;;;19.70;99.90;;;;;;5081814;28;20115;-84
2021/07/02 10:19:52;;;;;;;21.42;12.27;;;19.80;99.90;;;;;;5086075;28;20063;-83
2021/07/02 10:22:44;;;;;;;25.38;13.32;;;20.00;99.90;;;;;;5069082;28;20054;-84
2021/07/02 10:25:33;;;;;;;20.23;12.50;;;20.00;99.90;;;;;;5071212;28;20044;-82
2021/07/02 10:28:22;;;;;;;20.65;11.23;;;20.10;99.90;;;;;;5079446;28;20040;-85
2021/07/02 10:31:10;;;;;;;21.92;12.15;;;20.30;99.90;;;;;;5076202;28;20036;-84
2021/07/02 10:34:00;;;;;;;23.10;11.10;;;20.30;99.90;;;;;;5071475;23;20046;-86
2021/07/02 10:36:47;;;;;;;20.85;10.55;;;20.40;99.90;;;;;;5050947;28;20045;-85
2021/07/02 10:39:36;;;;;;;24.30;9.98;;;20.50;99.90;;;;;;5049268;28;20055;-86
2021/07/02 10:42:24;;;;;;;18.23;10.30;;;20.70;99.90;;;;;;5065322;28;20475;-86
2021/07/02 10:45:11;;;;;;;21.70;11.45;;;20.90;99.90;;;;;;5071587;28;20054;-86
2021/07/02 10:47:58;;;;;;;19.60;10.38;;;21.00;99.90;;;;;;5068061;28;20131;-86
2021/07/02 10:50:47;;;;;;;17.70;10.05;;;21.10;99.90;;;;;;5063991;28;20390;-86
2021/07/02 10:53:34;;;;;;;18.75;10.45;;;21.10;99.90;;;;;;5073876;28;20568;-87
2021/07/02 10:56:30;;;;;;;18.45;9.13;;;21.40;99.90;;;;;;5070032;28;20045;-87
2021/07/02 10:59:17;;;;;;;17.25;8.98;;;21.50;99.90;;;;;;5073014;28;20135;-86
2021/07/02 11:02:18;;;;;;;16.17;8.98;;;21.70;99.90;;;;;;5069076;28;20076;-86
2021/07/02 11:05:26;;;;;;;15.95;8.73;;;22.10;99.90;;;;;;5064307;28;20057;-86
2021/07/02 11:08:42;;;;;;;17.48;8.45;;;22.40;99.90;;;;;;5062105;28;20051;-86
2021/07/02 11:12:03;;;;;;;16.70;8.63;;;22.40;99.90;;;;;;5063511;28;20119;-86
2021/07/02 11:15:11;;;;;;;18.08;7.88;;;22.40;99.90;;;;;;5055429;28;20052;-86
2021/07/02 11:18:16;;;;;;;15.00;8.17;;;22.60;99.90;;;;;;5061603;28;20108;-87
2021/07/02 11:21:14;;;;;;;17.42;7.80;;;22.50;99.90;;;;;;5060811;28;20568;-86
2021/07/02 11:24:01;;;;;;;16.33;7.93;;;22.30;99.90;;;;;;5058347;28;20135;-86
2021/07/02 11:26:50;;;;;;;15.02;7.82;;;22.20;99.90;;;;;;5055175;28;20048;-85
2021/07/02 11:29:37;;;;;;;14.53;8.03;;;22.30;99.90;;;;;;5055126;28;20500;-86
2021/07/02 11:32:32;;;;;;;13.18;7.68;;;22.30;99.90;;;;;;5063180;28;20048;-85
2021/07/02 11:35:21;;;;;;;13.65;7.50;;;22.50;99.90;;;;;;5055704;28;20049;-86
2021/07/02 11:38:16;;;;;;;15.82;7.85;;;22.10;99.90;;;;;;5071430;28;20091;-85
2021/07/02 11:41:05;;;;;;;13.27;7.80;;;22.30;99.90;;;;;;5069326;28;20129;-86
2021/07/02 11:43:53;;;;;;;11.40;7.15;;;22.00;99.90;;;;;;5062180;28;20048;-86
2021/07/02 11:46:40;;;;;;;10.90;6.80;;;21.90;99.90;;;;;;5065709;28;20106;-87
2021/07/02 11:49:28;;;;;;;12.48;7.38;;;21.60;99.90;;;;;;5063402;28;20132;-85
2021/07/02 11:52:16;;;;;;;10.25;6.30;;;21.80;99.90;;;;;;5066381;28;20072;-85
2021/07/02 11:55:03;;;;;;;12.40;7.20;;;22.10;99.90;;;;;;5060960;28;20190;-86
2021/07/02 11:57:50;;;;;;;10.75;7.05;;;22.20;99.90;;;;;;5070704;28;20139;-87
2021/07/02 12:00:38;;;;;;;12.80;7.63;;;22.50;99.90;;;;;;5067704;28;20049;-86
2021/07/02 12:03:25;;;;;;;14.38;7.47;;;22.00;99.90;;;;;;5067864;28;20497;-86
2021/07/02 12:06:24;;;;;;;12.07;7.07;;;22.00;99.90;;;;;;5058538;28;20037;-87
2021/07/02 12:09:12;;;;;;;12.13;7.65;;;22.50;99.90;;;;;;5061441;28;20420;-86
2021/07/02 12:12:00;;;;;;;12.38;7.47;;;22.70;99.90;;;;;;5064075;28;20150;-87
2021/07/02 12:14:47;;;;;;;12.30;6.82;;;22.80;99.80;;;;;;5057138;28;20505;-86
2021/07/02 12:17:35;;;;;;;13.18;6.68;;;23.20;99.80;;;;;;5066704;28;20444;-86
2021/07/02 12:20:22;;;;;;;11.90;6.63;;;23.20;98.30;;;;;;5063832;28;20063;-87
2021/07/02 12:23:10;;;;;;;11.70;7.05;;;23.20;99.90;;;;;;5067351;28;20493;-86
2021/07/02 12:26:19;;;;;;;12.68;6.63;;;23.10;98.40;;;;;;5053613;28;20037;-86
2021/07/02 12:29:09;;;;;;;11.05;6.30;;;22.90;98.70;;;;;;5056581;28;20090;-87
2021/07/02 12:31:59;;;;;;;11.43;6.95;;;22.80;99.20;;;;;;5063926;28;20042;-87
2021/07/02 12:34:48;;;;;;;14.05;6.88;;;22.30;99.60;;;;;;5070870;28;20131;-86
2021/07/02 12:37:38;;;;;;;11.25;6.35;;;22.50;99.50;;;;;;5062754;28;20178;-87
2021/07/02 12:40:27;;;;;;;12.65;6.20;;;22.00;99.30;;;;;;5052163;28;20071;-86
2021/07/02 12:43:14;;;;;;;12.63;6.47;;;21.90;99.90;;;;;;5062975;28;20040;-86
2021/07/02 12:46:01;;;;;;;10.32;5.72;;;22.00;99.50;;;;;;5059504;28;20137;-87
2021/07/02 12:48:48;;;;;;;11.25;5.97;;;22.00;99.90;;;;;;5062282;28;20083;-86
2021/07/02 12:51:36;;;;;;;9.48;5.60;;;22.10;99.70;;;;;;5065348;28;20402;-86
2021/07/02 12:57:32;;;;;;;9.52;5.68;;;22.20;99.90;;;;;;5064549;28;20040;-86
2021/07/02 13:00:28;;;;;;;11.43;6.05;;;22.40;99.90;;;;;;5058532;28;20124;-86
2021/07/02 13:03:15;;;;;;;12.25;5.38;;;22.60;99.90;;;;;;5081810;28;20104;-87
2021/07/02 13:06:11;;;;;;;10.57;5.40;;;22.80;99.90;;;;;;5073148;28;20040;-88
2021/07/02 13:08:58;;;;;;;11.40;6.28;;;23.00;99.90;;;;;;5070751;28;20040;-85
2021/07/02 13:11:45;;;;;;;11.43;5.78;;;22.90;99.70;;;;;;5064125;28;20131;-85
2021/07/02 13:14:34;;;;;;;9.82;5.68;;;22.90;99.50;;;;;;5066258;28;20045;-86
2021/07/02 13:17:40;;;;;;;11.23;6.23;;;22.70;99.40;;;;;;5064097;28;20501;-87
2021/07/02 13:20:42;;;;;;;10.48;6.65;;;22.80;99.90;;;;;;5076048;28;20375;-86
2021/07/02 13:23:31;;;;;;;9.43;5.80;;;22.50;99.10;;;;;;5079778;28;20048;-86
2021/07/02 13:26:20;;;;;;;10.83;6.00;;;22.10;99.90;;;;;;5066864;28;20096;-87
2021/07/02 13:29:12;;;;;;;11.10;5.75;;;21.90;99.90;;;;;;5073841;28;20123;-87
2021/07/02 13:32:00;;;;;;;9.68;6.00;;;21.60;99.90;;;;;;5060571;28;20044;-86
2021/07/02 13:34:48;;;;;;;10.38;6.18;;;21.50;99.90;;;;;;5065833;28;20883;-86
2021/07/02 13:37:35;;;;;;;15.32;6.32;;;21.50;99.90;;;;;;5070310;28;20562;-86
2021/07/02 13:40:39;;;;;;;9.00;5.90;;;21.10;99.90;;;;;;5061870;28;20048;-87
2021/07/02 13:43:26;;;;;;;13.60;6.40;;;21.10;99.90;;;;;;5074182;28;20070;-84
2021/07/02 13:46:13;;;;;;;13.10;6.72;;;21.10;99.90;;;;;;5067474;28;20844;-86
2021/07/02 13:49:02;;;;;;;9.30;6.40;;;20.80;99.90;;;;;;5067172;28;20040;-86
2021/07/02 13:51:49;;;;;;;10.38;6.13;;;20.60;99.90;;;;;;5067594;28;20055;-88
2021/07/02 13:54:37;;;;;;;13.73;6.50;;;20.70;99.90;;;;;;5067638;28;20041;-86
2021/07/02 13:57:25;;;;;;;11.88;5.30;;;20.80;99.90;;;;;;5067702;28;20155;-88
2021/07/02 14:00:12;;;;;;;10.43;5.82;;;20.80;99.90;;;;;;5066196;28;20049;-87
2021/07/02 14:02:59;;;;;;;10.50;5.93;;;20.90;99.90;;;;;;5066176;28;20064;-88
2021/07/02 14:05:48;;;;;;;9.13;5.43;;;21.10;99.90;;;;;;5064238;28;20044;-88
2021/07/02 14:08:35;;;;;;;10.80;6.25;;;21.40;99.90;;;;;;5067526;28;20128;-86
2021/07/02 14:11:22;;;;;;;10.63;5.75;;;21.40;99.90;;;;;;5069641;28;20075;-88
2021/07/02 14:14:10;;;;;;;10.50;5.05;;;21.50;99.90;;;;;;5060366;28;20040;-86
2021/07/02 14:16:57;;;;;;;8.32;5.25;;;21.50;99.90;;;;;;5065389;28;20417;-88
2021/07/02 14:19:45;;;;;;;10.10;5.50;;;21.60;99.90;;;;;;5073127;28;20049;-85
2021/07/02 14:22:35;;;;;;;11.20;6.15;;;22.00;99.90;;;;;;5062567;28;20053;-87
2021/07/02 14:25:27;;;;;;;12.23;6.10;;;22.20;99.90;;;;;;5068029;28;20052;-87
2021/07/02 14:28:14;;;;;;;11.90;6.07;;;24.00;99.90;;;;;;5065370;28;20041;-86